Time;durP1;ratioP1;P1;durP2;ratioP2;P2;SDS_P1;SDS_P2;PMS_P1;PMS_P2;Temp;Humidity;BMP_temperature;BMP_pressure;BME280_temperature;BME280_humidity;BME280_pressure;Samples;Min_cycle;Max_cycle;Signal;HPM_P1;HPM_P2
2022/10/13 00:02:09;;;;;;;24.73;22.93;;;;;;;;;;5112948;28;20225;-77
2022/10/13 00:04:36;;;;;;;25.73;23.93;;;;;;;;;;5113254;28;20422;-78
2022/10/13 00:07:03;;;;;;;26.90;24.30;;;;;;;;;;5112864;27;20474;-78
2022/10/13 00:09:31;;;;;;;27.13;24.50;;;;;;;;;;5113159;28;20985;-78
2022/10/13 00:12:00;;;;;;;25.53;23.90;;;;;;;;;;5112768;28;20425;-77
2022/10/13 00:14:27;;;;;;;26.07;23.83;;;;;;;;;;5113276;28;20438;-78
2022/10/13 00:16:54;;;;;;;26.73;24.17;;;;;;;;;;5113368;28;20449;-78
2022/10/13 00:19:21;;;;;;;27.63;25.63;;;;;;;;;;5113140;28;20453;-77
2022/10/13 00:21:49;;;;;;;26.50;24.37;;;;;;;;;;5112766;28;20479;-77
2022/10/13 00:24:16;;;;;;;26.10;24.10;;;;;;;;;;5112909;28;20483;-77
2022/10/13 00:26:43;;;;;;;26.20;24.20;;;;;;;;;;5113376;28;20421;-78
2022/10/13 00:29:12;;;;;;;26.13;24.20;;;;;;;;;;5113333;28;20451;-78
2022/10/13 00:31:39;;;;;;;25.40;23.57;;;;;;;;;;5112490;28;20449;-77
2022/10/13 00:34:07;;;;;;;26.90;24.70;;;;;;;;;;5112895;28;20471;-77
2022/10/13 00:36:34;;;;;;;25.33;23.43;;;;;;;;;;5113141;28;20426;-78
2022/10/13 00:39:02;;;;;;;25.03;23.33;;;;;;;;;;5112923;28;20575;-77
2022/10/13 00:41:30;;;;;;;25.27;23.47;;;;;;;;;;5112666;28;20514;-77
2022/10/13 00:43:58;;;;;;;25.43;23.53;;;;;;;;;;5113023;28;20438;-78
2022/10/13 00:46:28;;;;;;;25.17;23.27;;;;;;;;;;5113093;28;20478;-78
2022/10/13 00:48:56;;;;;;;27.13;25.07;;;;;;;;;;5112843;28;20422;-78
2022/10/13 00:51:25;;;;;;;26.80;24.43;;;;;;;;;;5112184;28;20787;-77
2022/10/13 00:53:54;;;;;;;26.17;23.90;;;;;;;;;;5112712;28;20479;-77
2022/10/13 00:56:22;;;;;;;24.97;23.10;;;;;;;;;;5112743;28;20423;-77
2022/10/13 00:58:49;;;;;;;26.90;24.77;;;;;;;;;;5113013;28;20897;-78
2022/10/13 01:01:17;;;;;;;28.17;25.80;;;;;;;;;;5112032;28;20502;-78
2022/10/13 01:03:47;;;;;;;26.90;24.60;;;;;;;;;;5112690;28;20487;-78
2022/10/13 01:06:14;;;;;;;28.27;25.80;;;;;;;;;;5112947;28;20448;-78
2022/10/13 01:08:42;;;;;;;25.73;23.90;;;;;;;;;;5115490;28;20446;-78
2022/10/13 01:11:19;;;;;;;26.50;24.60;;;;;;;;;;5114564;28;20458;-78
2022/10/13 01:13:50;;;;;;;26.63;24.57;;;;;;;;;;5116400;28;20486;-77
2022/10/13 01:16:23;;;;;;;26.53;24.30;;;;;;;;;;5116685;28;20420;-78
2022/10/13 01:18:56;;;;;;;25.97;24.23;;;;;;;;;;5116689;28;20432;-78
2022/10/13 01:21:27;;;;;;;25.93;23.93;;;;;;;;;;5116001;28;20450;-77
2022/10/13 01:24:16;;;;;;;28.23;25.63;;;;;;;;;;5116288;28;20782;-77
2022/10/13 01:26:54;;;;;;;26.80;24.60;;;;;;;;;;5116538;28;20407;-78
2022/10/13 01:29:33;;;;;;;26.50;24.53;;;;;;;;;;5116407;28;20409;-78
2022/10/13 01:32:04;;;;;;;25.40;23.37;;;;;;;;;;5115796;28;20454;-77
2022/10/13 01:34:34;;;;;;;27.20;25.20;;;;;;;;;;5116440;28;20425;-78
2022/10/13 01:37:04;;;;;;;26.30;24.30;;;;;;;;;;5116372;28;20410;-77
2022/10/13 01:39:35;;;;;;;26.85;24.60;;;;;;;;;;5115971;28;20947;-77
2022/10/13 01:42:10;;;;;;;26.77;24.80;;;;;;;;;;5115657;28;20215;-78
2022/10/13 01:44:38;;;;;;;27.33;25.07;;;;;;;;;;5116220;28;20878;-78
2022/10/13 01:47:08;;;;;;;27.27;25.17;;;;;;;;;;5116256;28;20451;-78
2022/10/13 01:49:36;;;;;;;26.70;24.70;;;;;;;;;;5116188;28;20479;-77
2022/10/13 01:52:07;;;;;;;27.10;25.10;;;;;;;;;;5115410;27;20274;-78
2022/10/13 01:54:34;;;;;;;28.20;26.10;;;;;;;;;;5116078;28;20196;-78
2022/10/13 01:57:01;;;;;;;28.60;26.30;;;;;;;;;;5115848;28;20423;-77
2022/10/13 01:59:31;;;;;;;27.00;25.00;;;;;;;;;;5115978;28;20456;-78
2022/10/13 02:02:04;;;;;;;27.50;25.20;;;;;;;;;;5115295;28;20484;-78
2022/10/13 02:04:39;;;;;;;26.73;24.73;;;;;;;;;;5115521;28;20459;-78
2022/10/13 02:07:10;;;;;;;27.63;25.50;;;;;;;;;;5115724;28;20807;-78
2022/10/13 02:09:42;;;;;;;28.73;26.27;;;;;;;;;;5115328;28;20432;-78
2022/10/13 02:12:11;;;;;;;27.90;25.53;;;;;;;;;;5114693;28;20403;-78
2022/10/13 02:14:40;;;;;;;26.60;24.67;;;;;;;;;;5115600;28;20544;-77
2022/10/13 02:17:08;;;;;;;29.60;27.00;;;;;;;;;;5115109;28;20418;-78
2022/10/13 02:19:38;;;;;;;25.93;24.10;;;;;;;;;;5114750;28;20451;-78
2022/10/13 02:22:06;;;;;;;26.90;24.73;;;;;;;;;;5114428;28;20552;-78
2022/10/13 02:24:33;;;;;;;29.33;26.80;;;;;;;;;;5115032;28;20945;-77
2022/10/13 02:27:00;;;;;;;26.87;24.80;;;;;;;;;;5115236;28;20462;-78
2022/10/13 02:29:28;;;;;;;29.10;26.70;;;;;;;;;;5114963;28;20469;-77
2022/10/13 02:31:55;;;;;;;27.50;25.07;;;;;;;;;;5114747;28;20462;-77
2022/10/13 02:34:22;;;;;;;26.67;24.57;;;;;;;;;;5114822;28;20479;-78
2022/10/13 02:36:51;;;;;;;27.13;25.03;;;;;;;;;;5114700;28;20450;-77
2022/10/13 02:39:18;;;;;;;27.43;25.23;;;;;;;;;;5115033;28;20467;-78
2022/10/13 02:41:46;;;;;;;29.33;26.90;;;;;;;;;;5114420;28;20489;-77
2022/10/13 02:44:13;;;;;;;27.97;25.80;;;;;;;;;;5114934;28;20442;-77
2022/10/13 02:46:41;;;;;;;27.77;25.27;;;;;;;;;;5114838;28;20447;-78
2022/10/13 02:49:08;;;;;;;28.50;25.90;;;;;;;;;;5114511;28;20422;-77
2022/10/13 02:51:36;;;;;;;29.20;26.90;;;;;;;;;;5113917;28;20915;-78
2022/10/13 02:54:04;;;;;;;27.23;25.07;;;;;;;;;;5114592;28;20557;-78
2022/10/13 02:56:32;;;;;;;28.80;26.40;;;;;;;;;;5114627;28;20427;-78
2022/10/13 02:58:59;;;;;;;28.60;26.07;;;;;;;;;;5114602;28;20432;-77
2022/10/13 03:01:26;;;;;;;26.85;24.75;;;;;;;;;;5114048;28;20841;-77
2022/10/13 03:03:53;;;;;;;29.80;27.27;;;;;;;;;;5114386;28;20244;-77
2022/10/13 03:06:21;;;;;;;28.10;25.73;;;;;;;;;;5114541;28;20433;-78
2022/10/13 03:08:48;;;;;;;27.93;25.77;;;;;;;;;;5114334;28;20458;-78
2022/10/13 03:11:17;;;;;;;28.67;26.27;;;;;;;;;;5113841;28;20455;-78
2022/10/13 03:13:44;;;;;;;28.80;26.30;;;;;;;;;;5113804;28;20553;-77
2022/10/13 03:16:12;;;;;;;27.83;25.40;;;;;;;;;;5114076;28;20503;-77
2022/10/13 03:18:39;;;;;;;28.27;25.97;;;;;;;;;;5114230;28;20417;-78
2022/10/13 03:21:07;;;;;;;28.70;26.17;;;;;;;;;;5113435;28;20454;-77
2022/10/13 03:23:35;;;;;;;29.13;26.80;;;;;;;;;;5114069;28;20517;-78
2022/10/13 03:26:03;;;;;;;26.60;24.37;;;;;;;;;;5114153;28;20473;-78
2022/10/13 03:28:32;;;;;;;27.80;25.70;;;;;;;;;;5113737;28;20995;-78
2022/10/13 03:31:03;;;;;;;29.87;27.30;;;;;;;;;;5112920;28;20425;-78
2022/10/13 03:33:30;;;;;;;29.77;27.07;;;;;;;;;;5113859;28;20448;-79
2022/10/13 03:36:00;;;;;;;28.47;26.03;;;;;;;;;;5113868;28;20425;-78
2022/10/13 03:38:27;;;;;;;29.37;26.57;;;;;;;;;;5113892;28;20451;-77
2022/10/13 03:40:55;;;;;;;32.63;27.77;;;;;;;;;;5113718;28;20454;-78
2022/10/13 03:43:22;;;;;;;29.43;26.63;;;;;;;;;;5113447;28;20458;-78
2022/10/13 03:45:56;;;;;;;29.83;27.23;;;;;;;;;;5113822;28;20448;-78
2022/10/13 03:48:24;;;;;;;28.77;25.97;;;;;;;;;;5113835;28;20903;-77
2022/10/13 03:50:51;;;;;;;30.10;27.50;;;;;;;;;;5113627;28;20455;-78
2022/10/13 03:53:19;;;;;;;28.73;26.30;;;;;;;;;;5112951;28;20562;-78
2022/10/13 03:55:49;;;;;;;29.20;26.60;;;;;;;;;;5113275;28;20451;-78
2022/10/13 03:58:17;;;;;;;28.37;26.23;;;;;;;;;;5113381;28;20431;-78
2022/10/13 04:00:45;;;;;;;29.60;27.40;;;;;;;;;;5113607;28;20820;-78
2022/10/13 04:03:14;;;;;;;30.37;27.80;;;;;;;;;;5112142;27;21025;-78
2022/10/13 04:05:41;;;;;;;28.80;26.43;;;;;;;;;;5113484;28;20834;-77
2022/10/13 04:08:08;;;;;;;30.13;27.53;;;;;;;;;;5113550;28;20455;-78
2022/10/13 04:10:35;;;;;;;30.53;28.03;;;;;;;;;;5113160;28;20425;-78
2022/10/13 04:13:03;;;;;;;29.07;26.57;;;;;;;;;;5112360;28;20458;-77
2022/10/13 04:15:30;;;;;;;31.10;28.50;;;;;;;;;;5113335;28;20443;-79
2022/10/13 04:17:57;;;;;;;32.27;29.03;;;;;;;;;;5113445;28;20406;-78
2022/10/13 04:20:26;;;;;;;32.40;29.33;;;;;;;;;;5112945;28;20938;-78
2022/10/13 04:22:54;;;;;;;31.97;29.03;;;;;;;;;;5112703;28;20458;-77
2022/10/13 04:25:21;;;;;;;34.23;30.50;;;;;;;;;;5113274;28;20425;-77
2022/10/13 04:27:49;;;;;;;33.67;30.40;;;;;;;;;;5113200;28;20437;-77
2022/10/13 04:30:16;;;;;;;33.57;30.23;;;;;;;;;;5113259;28;20460;-77
2022/10/13 04:32:43;;;;;;;33.93;30.83;;;;;;;;;;5112673;28;20450;-78
2022/10/13 04:35:11;;;;;;;30.63;27.93;;;;;;;;;;5108261;28;20432;-78
2022/10/13 04:37:40;;;;;;;32.90;30.00;;;;;;;;;;5105052;28;20413;-77
2022/10/13 04:40:08;;;;;;;31.90;28.90;;;;;;;;;;5112774;27;20448;-78
2022/10/13 04:42:35;;;;;;;31.50;28.90;;;;;;;;;;5114925;28;21025;-78
2022/10/13 04:45:03;;;;;;;31.60;28.90;;;;;;;;;;5116934;28;20913;-77
2022/10/13 04:47:31;;;;;;;32.20;29.50;;;;;;;;;;5117253;28;20454;-77
2022/10/13 04:49:58;;;;;;;33.25;30.08;;;;;;;;;;5116818;28;20516;-77
2022/10/13 04:52:26;;;;;;;32.57;29.47;;;;;;;;;;5116579;28;20218;-79
2022/10/13 04:54:54;;;;;;;34.10;31.02;;;;;;;;;;5116796;28;20454;-78
2022/10/13 04:57:22;;;;;;;34.30;29.77;;;;;;;;;;5116562;28;20571;-77
2022/10/13 04:59:49;;;;;;;29.53;27.00;;;;;;;;;;5116251;27;20437;-77
2022/10/13 05:02:17;;;;;;;30.67;27.90;;;;;;;;;;5116277;28;20450;-78
2022/10/13 05:04:44;;;;;;;33.03;29.80;;;;;;;;;;5116569;28;20442;-78
2022/10/13 05:07:11;;;;;;;32.70;29.70;;;;;;;;;;5116472;28;20809;-78
2022/10/13 05:09:39;;;;;;;31.67;28.60;;;;;;;;;;5116128;28;20451;-78
2022/10/13 05:12:08;;;;;;;32.20;29.13;;;;;;;;;;5116066;28;20413;-78
2022/10/13 05:14:35;;;;;;;32.80;29.57;;;;;;;;;;5116135;27;20481;-78
2022/10/13 05:17:02;;;;;;;32.60;29.70;;;;;;;;;;5116584;28;20453;-77
2022/10/13 05:19:30;;;;;;;33.47;30.37;;;;;;;;;;5115582;28;20442;-78
2022/10/13 05:21:57;;;;;;;31.90;28.93;;;;;;;;;;5116037;28;20411;-78
2022/10/13 05:24:35;;;;;;;33.53;30.53;;;;;;;;;;5116366;28;20487;-78
2022/10/13 05:27:02;;;;;;;33.90;30.67;;;;;;;;;;5116166;28;20427;-77
2022/10/13 05:29:31;;;;;;;32.07;29.40;;;;;;;;;;5116470;28;20447;-77
2022/10/13 05:31:58;;;;;;;33.80;30.63;;;;;;;;;;5115962;28;20450;-78
2022/10/13 05:34:26;;;;;;;30.70;27.87;;;;;;;;;;5115910;28;20971;-78
2022/10/13 05:36:53;;;;;;;31.70;29.00;;;;;;;;;;5116388;28;20432;-77
2022/10/13 05:39:21;;;;;;;32.20;29.20;;;;;;;;;;5116225;28;20429;-76
2022/10/13 05:41:48;;;;;;;36.27;29.43;;;;;;;;;;5115725;28;20461;-76
2022/10/13 05:44:16;;;;;;;33.37;30.27;;;;;;;;;;5115282;27;20506;-77
2022/10/13 05:46:45;;;;;;;33.13;30.03;;;;;;;;;;5116141;28;20526;-78
2022/10/13 05:49:12;;;;;;;33.47;30.10;;;;;;;;;;5115164;28;20943;-78
2022/10/13 05:51:42;;;;;;;33.70;30.47;;;;;;;;;;5115102;28;20443;-78
2022/10/13 05:54:10;;;;;;;32.80;29.97;;;;;;;;;;5114797;27;20464;-77
2022/10/13 05:56:39;;;;;;;32.87;29.50;;;;;;;;;;5115982;28;20425;-78
2022/10/13 05:59:08;;;;;;;31.20;28.77;;;;;;;;;;5115844;28;20462;-77
2022/10/13 06:01:37;;;;;;;32.47;29.30;;;;;;;;;;5114993;28;20459;-78
2022/10/13 06:04:08;;;;;;;33.07;30.10;;;;;;;;;;5115305;28;20457;-78
2022/10/13 06:06:36;;;;;;;32.67;29.63;;;;;;;;;;5115483;28;20422;-77
2022/10/13 06:09:03;;;;;;;31.97;28.90;;;;;;;;;;5115422;28;20421;-78
2022/10/13 06:11:31;;;;;;;32.73;30.03;;;;;;;;;;5115138;28;20876;-77
2022/10/13 06:13:59;;;;;;;33.83;30.60;;;;;;;;;;5115189;28;20478;-78
2022/10/13 06:16:26;;;;;;;33.37;30.60;;;;;;;;;;5115600;28;20530;-78
2022/10/13 06:18:53;;;;;;;32.60;30.00;;;;;;;;;;5115652;28;20441;-77
2022/10/13 06:21:22;;;;;;;34.67;31.50;;;;;;;;;;5115051;28;20439;-78
2022/10/13 06:23:49;;;;;;;31.97;29.27;;;;;;;;;;5114946;28;20486;-77
2022/10/13 06:26:17;;;;;;;32.20;29.03;;;;;;;;;;5115329;28;20448;-77
2022/10/13 06:28:44;;;;;;;32.77;29.90;;;;;;;;;;5115280;28;20455;-76
2022/10/13 06:31:12;;;;;;;33.00;30.03;;;;;;;;;;5114740;28;20451;-76
2022/10/13 06:33:39;;;;;;;39.63;35.90;;;;;;;;;;5114844;28;20448;-76
2022/10/13 06:36:07;;;;;;;38.93;35.03;;;;;;;;;;5114787;28;20451;-78
2022/10/13 06:38:36;;;;;;;40.00;36.20;;;;;;;;;;5114809;28;20458;-77
2022/10/13 06:41:04;;;;;;;32.83;29.80;;;;;;;;;;5114532;28;20454;-77
2022/10/13 06:43:31;;;;;;;33.33;30.40;;;;;;;;;;5114454;28;20552;-76
2022/10/13 06:45:59;;;;;;;32.97;29.93;;;;;;;;;;5114551;28;20458;-77
2022/10/13 06:48:27;;;;;;;32.43;29.53;;;;;;;;;;5114840;28;20477;-78
2022/10/13 06:50:54;;;;;;;34.37;31.37;;;;;;;;;;5114374;28;20460;-78
2022/10/13 06:53:22;;;;;;;39.27;35.27;;;;;;;;;;5114463;28;20517;-77
2022/10/13 06:55:50;;;;;;;37.53;33.67;;;;;;;;;;5114707;28;20490;-76
2022/10/13 06:58:18;;;;;;;39.83;35.97;;;;;;;;;;5113034;28;20931;-76
2022/10/13 07:00:45;;;;;;;39.13;35.57;;;;;;;;;;5114643;28;20413;-77
2022/10/13 07:03:12;;;;;;;31.13;28.03;;;;;;;;;;5113852;28;20486;-77
2022/10/13 07:05:40;;;;;;;35.67;32.27;;;;;;;;;;5113214;28;20429;-76
2022/10/13 07:08:07;;;;;;;32.77;29.43;;;;;;;;;;5114424;28;20420;-77
2022/10/13 07:10:34;;;;;;;32.87;29.97;;;;;;;;;;5114288;28;20455;-76
2022/10/13 07:13:03;;;;;;;31.70;29.20;;;;;;;;;;5113293;28;20478;-77
2022/10/13 07:15:30;;;;;;;32.80;29.90;;;;;;;;;;5114376;28;20777;-76
2022/10/13 07:17:58;;;;;;;36.13;32.97;;;;;;;;;;5114040;28;20418;-75
2022/10/13 07:20:26;;;;;;;49.90;44.90;;;;;;;;;;5114278;28;20428;-76
2022/10/13 07:22:53;;;;;;;46.13;41.80;;;;;;;;;;5113240;28;20443;-76
2022/10/13 07:25:20;;;;;;;41.03;37.33;;;;;;;;;;5113918;28;20458;-77
2022/10/13 07:27:48;;;;;;;36.13;33.13;;;;;;;;;;5114019;28;20475;-76
2022/10/13 07:30:17;;;;;;;40.10;36.30;;;;;;;;;;5114053;28;20478;-76
2022/10/13 07:32:44;;;;;;;37.10;33.13;;;;;;;;;;5113070;28;20478;-77
2022/10/13 07:35:12;;;;;;;39.40;35.97;;;;;;;;;;5113751;28;20449;-76
2022/10/13 07:37:40;;;;;;;33.37;30.77;;;;;;;;;;5113953;28;20443;-76
2022/10/13 07:40:08;;;;;;;37.40;33.90;;;;;;;;;;5113899;28;20442;-76
2022/10/13 07:42:36;;;;;;;36.20;32.83;;;;;;;;;;5112868;28;20475;-76
2022/10/13 07:45:03;;;;;;;37.60;33.93;;;;;;;;;;5113681;28;20829;-77
2022/10/13 07:47:32;;;;;;;37.47;34.20;;;;;;;;;;5113734;28;20442;-76
2022/10/13 07:49:59;;;;;;;30.47;27.67;;;;;;;;;;5113796;28;20810;-75
2022/10/13 07:52:26;;;;;;;31.67;29.03;;;;;;;;;;5113066;28;20494;-76
2022/10/13 07:54:54;;;;;;;32.90;29.70;;;;;;;;;;5113671;28;20489;-76
2022/10/13 07:57:21;;;;;;;30.50;27.70;;;;;;;;;;5112304;28;20451;-76
2022/10/13 07:59:49;;;;;;;31.33;28.83;;;;;;;;;;5113248;28;20489;-77
2022/10/13 08:02:16;;;;;;;29.40;27.10;;;;;;;;;;5112620;28;20430;-76
2022/10/13 08:04:45;;;;;;;29.70;27.00;;;;;;;;;;5113093;28;21014;-76
2022/10/13 08:07:12;;;;;;;29.90;27.10;;;;;;;;;;5113324;28;20859;-76
2022/10/13 08:09:39;;;;;;;30.83;27.67;;;;;;;;;;5113212;28;20445;-76
2022/10/13 08:12:07;;;;;;;30.03;27.23;;;;;;;;;;5112416;28;20418;-76
2022/10/13 08:14:34;;;;;;;28.27;26.00;;;;;;;;;;5113483;28;20428;-77
2022/10/13 08:17:01;;;;;;;31.77;28.53;;;;;;;;;;5112801;28;20950;-76
2022/10/13 08:19:29;;;;;;;32.10;29.47;;;;;;;;;;5117447;28;20418;-80
2022/10/13 08:21:57;;;;;;;29.70;27.30;;;;;;;;;;5121239;28;20533;-80
2022/10/13 08:24:25;;;;;;;29.17;26.60;;;;;;;;;;5112857;27;20483;-76
2022/10/13 08:26:52;;;;;;;34.07;30.80;;;;;;;;;;5113248;28;20452;-76
2022/10/13 08:29:19;;;;;;;27.40;25.30;;;;;;;;;;5112129;28;20887;-76
2022/10/13 08:31:47;;;;;;;26.73;24.57;;;;;;;;;;5112782;28;20439;-76
2022/10/13 08:34:14;;;;;;;27.10;24.90;;;;;;;;;;5113436;28;20467;-76
2022/10/13 08:36:42;;;;;;;29.83;27.47;;;;;;;;;;5113182;28;20426;-76
2022/10/13 08:39:12;;;;;;;26.77;24.77;;;;;;;;;;5113079;28;20451;-77
2022/10/13 08:41:42;;;;;;;26.90;24.43;;;;;;;;;;5112690;28;20782;-76
2022/10/13 08:44:15;;;;;;;27.60;25.50;;;;;;;;;;5112811;28;20538;-76
2022/10/13 08:46:45;;;;;;;27.53;25.00;;;;;;;;;;5112853;28;20474;-76
2022/10/13 08:49:14;;;;;;;27.33;25.33;;;;;;;;;;5112800;28;20787;-76
2022/10/13 08:51:42;;;;;;;26.47;24.40;;;;;;;;;;5112571;28;20418;-77
2022/10/13 08:54:15;;;;;;;27.33;25.23;;;;;;;;;;5112610;28;20492;-77
2022/10/13 08:56:45;;;;;;;29.07;26.77;;;;;;;;;;5113039;28;20437;-77
2022/10/13 08:59:15;;;;;;;26.20;23.97;;;;;;;;;;5112718;28;20468;-77
2022/10/13 09:01:47;;;;;;;28.37;26.00;;;;;;;;;;5112141;28;20436;-76
2022/10/13 09:04:25;;;;;;;28.50;26.20;;;;;;;;;;5112189;27;20531;-76
2022/10/13 09:06:54;;;;;;;28.03;26.00;;;;;;;;;;5112984;28;20436;-76
2022/10/13 09:09:23;;;;;;;26.83;24.67;;;;;;;;;;5112874;28;20459;-77
2022/10/13 09:11:51;;;;;;;27.57;25.57;;;;;;;;;;5112024;28;20452;-77
2022/10/13 09:14:22;;;;;;;26.70;24.67;;;;;;;;;;5112432;28;20845;-76
2022/10/13 09:16:50;;;;;;;27.77;25.57;;;;;;;;;;5112530;28;20414;-76
2022/10/13 09:19:26;;;;;;;29.60;27.03;;;;;;;;;;5112830;28;20522;-76
2022/10/13 09:21:55;;;;;;;27.33;25.23;;;;;;;;;;5112362;28;20444;-77
2022/10/13 09:24:25;;;;;;;28.27;25.80;;;;;;;;;;5112369;28;20504;-77
2022/10/13 09:27:04;;;;;;;27.17;24.47;;;;;;;;;;5112751;28;20427;-76
2022/10/13 09:29:31;;;;;;;28.03;25.80;;;;;;;;;;5115117;28;20418;-76
2022/10/13 09:32:08;;;;;;;29.30;26.70;;;;;;;;;;5115555;28;20449;-77
2022/10/13 09:34:36;;;;;;;29.60;27.17;;;;;;;;;;5115775;27;20469;-77
2022/10/13 09:37:04;;;;;;;29.80;27.60;;;;;;;;;;5116382;28;20448;-76
2022/10/13 09:39:34;;;;;;;26.03;24.03;;;;;;;;;;5115913;28;20915;-77
2022/10/13 09:42:21;;;;;;;28.10;25.87;;;;;;;;;;5115599;28;20467;-76
2022/10/13 09:44:56;;;;;;;26.47;24.37;;;;;;;;;;5116055;28;20484;-76
2022/10/13 09:47:25;;;;;;;25.77;23.70;;;;;;;;;;5116197;28;20433;-76
2022/10/13 09:50:00;;;;;;;28.00;25.23;;;;;;;;;;5116154;28;20447;-76
2022/10/13 09:52:28;;;;;;;27.00;25.20;;;;;;;;;;5115526;28;20480;-77
2022/10/13 09:54:59;;;;;;;28.20;25.97;;;;;;;;;;5116016;28;20441;-77
2022/10/13 09:57:32;;;;;;;26.00;24.10;;;;;;;;;;5115844;28;20436;-77
2022/10/13 10:00:03;;;;;;;27.50;25.00;;;;;;;;;;5115913;28;20447;-76
2022/10/13 10:02:33;;;;;;;26.60;24.57;;;;;;;;;;5114604;27;20480;-77
2022/10/13 10:05:02;;;;;;;26.50;24.40;;;;;;;;;;5115495;28;20482;-76
2022/10/13 10:07:32;;;;;;;25.80;23.60;;;;;;;;;;5115383;28;20448;-76
2022/10/13 10:10:04;;;;;;;27.37;25.30;;;;;;;;;;5115449;28;20478;-76
2022/10/13 10:12:33;;;;;;;27.03;25.00;;;;;;;;;;5114875;28;20534;-77
2022/10/13 10:15:01;;;;;;;27.17;25.00;;;;;;;;;;5115300;28;20929;-76
2022/10/13 10:17:31;;;;;;;26.20;24.30;;;;;;;;;;5115436;28;20524;-77
2022/10/13 10:20:02;;;;;;;27.30;25.17;;;;;;;;;;5115178;28;20476;-76
2022/10/13 10:22:35;;;;;;;25.83;23.83;;;;;;;;;;5114893;28;20463;-77
2022/10/13 10:25:08;;;;;;;27.60;25.20;;;;;;;;;;5115076;28;20478;-77
2022/10/13 10:27:39;;;;;;;26.43;24.53;;;;;;;;;;5115491;28;20445;-77
2022/10/13 10:30:13;;;;;;;27.80;25.20;;;;;;;;;;5115428;28;20443;-77
2022/10/13 10:32:44;;;;;;;26.67;24.70;;;;;;;;;;5114601;28;20467;-76
2022/10/13 10:35:13;;;;;;;26.17;24.03;;;;;;;;;;5114928;28;20909;-76
2022/10/13 10:37:58;;;;;;;26.80;24.37;;;;;;;;;;5114791;28;20444;-77
2022/10/13 10:40:41;;;;;;;27.57;24.77;;;;;;;;;;5114704;28;20461;-76
2022/10/13 10:43:27;;;;;;;25.77;23.97;;;;;;;;;;5114954;27;20471;-77
2022/10/13 10:45:57;;;;;;;25.60;23.60;;;;;;;;;;5114708;28;20443;-76
2022/10/13 10:48:25;;;;;;;25.63;23.40;;;;;;;;;;5114853;28;20459;-76
2022/10/13 10:50:54;;;;;;;26.20;24.00;;;;;;;;;;5114760;28;20450;-77
2022/10/13 10:53:27;;;;;;;25.97;23.80;;;;;;;;;;5114450;27;20981;-76
2022/10/13 10:55:55;;;;;;;25.77;23.97;;;;;;;;;;5115674;28;20432;-76
2022/10/13 10:58:30;;;;;;;26.60;24.40;;;;;;;;;;5115433;28;20847;-76
2022/10/13 11:01:00;;;;;;;26.43;24.30;;;;;;;;;;5114703;28;20428;-77
2022/10/13 11:03:34;;;;;;;26.67;24.53;;;;;;;;;;5114770;28;20473;-76
2022/10/13 11:06:03;;;;;;;26.73;24.43;;;;;;;;;;5114970;28;20468;-77
2022/10/13 11:08:39;;;;;;;26.83;24.37;;;;;;;;;;5114623;28;20462;-76
2022/10/13 11:11:25;;;;;;;25.03;23.37;;;;;;;;;;5114245;28;20933;-77
2022/10/13 11:13:56;;;;;;;27.07;24.73;;;;;;;;;;5114333;28;21002;-76
2022/10/13 11:16:33;;;;;;;26.30;24.40;;;;;;;;;;5114663;27;20432;-77
2022/10/13 11:19:05;;;;;;;25.80;23.40;;;;;;;;;;5114369;28;20435;-77
2022/10/13 11:21:51;;;;;;;26.73;24.73;;;;;;;;;;5113684;28;20418;-77
2022/10/13 11:24:46;;;;;;;25.77;23.67;;;;;;;;;;5113291;27;20485;-77
2022/10/13 11:27:21;;;;;;;25.30;23.60;;;;;;;;;;5114021;28;20460;-77
2022/10/13 11:29:54;;;;;;;25.60;23.80;;;;;;;;;;5113871;28;20978;-77
2022/10/13 11:32:41;;;;;;;24.30;22.40;;;;;;;;;;5113638;28;20489;-76
2022/10/13 11:35:21;;;;;;;26.20;24.30;;;;;;;;;;5113624;28;20912;-76
2022/10/13 11:37:52;;;;;;;26.20;24.20;;;;;;;;;;5113748;28;20430;-77
2022/10/13 11:40:24;;;;;;;25.50;23.53;;;;;;;;;;5113687;28;20434;-77
2022/10/13 11:43:03;;;;;;;25.60;23.50;;;;;;;;;;5113009;28;20503;-76
2022/10/13 11:45:41;;;;;;;25.27;23.40;;;;;;;;;;5113445;28;20959;-76
2022/10/13 11:48:20;;;;;;;26.87;24.93;;;;;;;;;;5113818;28;20472;-76
2022/10/13 11:50:52;;;;;;;25.80;23.30;;;;;;;;;;5113053;28;20408;-76
2022/10/13 11:53:21;;;;;;;25.57;23.57;;;;;;;;;;5112979;28;20552;-76
2022/10/13 11:55:50;;;;;;;28.03;25.73;;;;;;;;;;5113512;28;20453;-76
2022/10/13 11:58:18;;;;;;;26.10;24.27;;;;;;;;;;5113435;28;20496;-76
2022/10/13 12:00:54;;;;;;;25.70;23.97;;;;;;;;;;5113636;28;21114;-76
2022/10/13 12:03:23;;;;;;;25.60;23.50;;;;;;;;;;5113746;28;20482;-76
2022/10/13 12:05:50;;;;;;;26.20;24.03;;;;;;;;;;5113162;28;21223;-77
2022/10/13 12:08:19;;;;;;;24.90;23.10;;;;;;;;;;5113187;28;20439;-76
2022/10/13 12:10:47;;;;;;;25.90;24.00;;;;;;;;;;5113403;28;20473;-76
2022/10/13 12:13:21;;;;;;;26.83;24.83;;;;;;;;;;5112532;28;20478;-76
2022/10/13 12:15:49;;;;;;;25.93;24.03;;;;;;;;;;5113278;28;20432;-77
2022/10/13 12:18:32;;;;;;;25.10;23.50;;;;;;;;;;5113113;28;20966;-77
2022/10/13 12:21:01;;;;;;;28.30;25.57;;;;;;;;;;5113010;28;20467;-77
2022/10/13 12:23:30;;;;;;;26.17;24.37;;;;;;;;;;5112947;27;20526;-76
2022/10/13 12:25:57;;;;;;;26.20;24.50;;;;;;;;;;5113004;28;20573;-77
2022/10/13 12:28:26;;;;;;;27.20;25.30;;;;;;;;;;5113429;28;20454;-77
2022/10/13 12:30:54;;;;;;;25.50;23.77;;;;;;;;;;5113200;28;20449;-76
2022/10/13 12:33:24;;;;;;;27.77;25.23;;;;;;;;;;5112942;28;20476;-77
2022/10/13 12:35:51;;;;;;;26.23;24.57;;;;;;;;;;5113284;28;20448;-77
2022/10/13 12:38:20;;;;;;;25.27;23.57;;;;;;;;;;5113284;28;20420;-77
2022/10/13 12:40:48;;;;;;;25.13;23.43;;;;;;;;;;5112917;28;20420;-77
2022/10/13 12:43:17;;;;;;;25.77;23.97;;;;;;;;;;5112859;28;20468;-77
2022/10/13 12:45:44;;;;;;;25.30;23.47;;;;;;;;;;5112949;28;20482;-77
2022/10/13 12:48:26;;;;;;;25.30;23.60;;;;;;;;;;5112884;28;20490;-77
2022/10/13 12:50:55;;;;;;;25.77;23.60;;;;;;;;;;5112476;28;20832;-77
2022/10/13 12:53:27;;;;;;;24.60;22.80;;;;;;;;;;5113131;28;20462;-77
2022/10/13 12:55:57;;;;;;;26.33;23.87;;;;;;;;;;5113004;28;20429;-76
2022/10/13 12:58:27;;;;;;;25.83;24.10;;;;;;;;;;5112813;28;20433;-77
2022/10/13 13:00:59;;;;;;;24.80;22.90;;;;;;;;;;5112615;28;20907;-77
2022/10/13 13:03:28;;;;;;;24.00;22.40;;;;;;;;;;5113358;27;20489;-77
2022/10/13 13:06:09;;;;;;;25.07;22.90;;;;;;;;;;5116813;28;20485;-77
2022/10/13 13:08:37;;;;;;;26.77;24.57;;;;;;;;;;5116871;28;20458;-77
2022/10/13 13:11:06;;;;;;;25.03;23.53;;;;;;;;;;5116401;28;20453;-76
2022/10/13 13:13:34;;;;;;;25.47;23.70;;;;;;;;;;5116390;28;20463;-77
2022/10/13 13:16:15;;;;;;;25.90;24.20;;;;;;;;;;5116589;28;20531;-77
2022/10/13 13:18:43;;;;;;;25.10;23.47;;;;;;;;;;5116565;28;20508;-76
2022/10/13 13:21:12;;;;;;;24.97;23.07;;;;;;;;;;5116396;28;20449;-77
2022/10/13 13:23:39;;;;;;;24.53;22.93;;;;;;;;;;5116714;28;20859;-77
2022/10/13 13:26:12;;;;;;;27.33;25.23;;;;;;;;;;5116350;28;21042;-76
2022/10/13 13:28:41;;;;;;;25.20;23.30;;;;;;;;;;5116466;28;20470;-77
2022/10/13 13:31:09;;;;;;;25.30;23.60;;;;;;;;;;5115851;28;20969;-77
2022/10/13 13:33:36;;;;;;;24.20;22.67;;;;;;;;;;5116215;28;20780;-76
2022/10/13 13:36:04;;;;;;;26.13;24.33;;;;;;;;;;5116536;28;20799;-76
2022/10/13 13:38:33;;;;;;;25.73;23.80;;;;;;;;;;5116167;28;20532;-77
2022/10/13 13:41:00;;;;;;;26.23;24.50;;;;;;;;;;5115644;28;20449;-77
2022/10/13 13:43:27;;;;;;;25.17;23.33;;;;;;;;;;5116152;28;20496;-77
2022/10/13 13:45:55;;;;;;;24.23;22.63;;;;;;;;;;5116133;28;20454;-77
2022/10/13 13:48:22;;;;;;;26.20;24.60;;;;;;;;;;5116313;28;20451;-77
2022/10/13 13:50:50;;;;;;;25.83;23.50;;;;;;;;;;5116269;28;20453;-77
2022/10/13 13:53:17;;;;;;;26.17;24.27;;;;;;;;;;5115817;28;20439;-77
2022/10/13 13:55:47;;;;;;;25.77;23.97;;;;;;;;;;5115952;28;20449;-77
2022/10/13 13:58:15;;;;;;;25.40;23.70;;;;;;;;;;5116270;28;20431;-77
2022/10/13 14:00:42;;;;;;;24.00;22.60;;;;;;;;;;5115829;28;20449;-76
2022/10/13 14:03:09;;;;;;;25.03;23.23;;;;;;;;;;5115490;28;20474;-77
2022/10/13 14:05:39;;;;;;;23.30;21.90;;;;;;;;;;5115502;28;20482;-77
2022/10/13 14:08:07;;;;;;;25.87;24.07;;;;;;;;;;5115560;28;20434;-76
2022/10/13 14:10:34;;;;;;;23.77;22.03;;;;;;;;;;5115855;28;20428;-77
2022/10/13 14:13:03;;;;;;;25.63;24.03;;;;;;;;;;5114539;27;20485;-77
2022/10/13 14:15:30;;;;;;;25.77;24.07;;;;;;;;;;5115184;28;20458;-77
2022/10/13 14:17:57;;;;;;;23.60;22.10;;;;;;;;;;5115540;28;20420;-77
2022/10/13 14:20:25;;;;;;;23.80;22.00;;;;;;;;;;5115462;28;20421;-77
2022/10/13 14:22:52;;;;;;;25.13;23.30;;;;;;;;;;5115113;28;20485;-77
2022/10/13 14:25:19;;;;;;;24.63;22.90;;;;;;;;;;5115453;28;20744;-76
2022/10/13 14:27:47;;;;;;;24.43;22.63;;;;;;;;;;5115418;28;20453;-77
2022/10/13 14:30:16;;;;;;;24.20;22.70;;;;;;;;;;5115139;28;20905;-77